createdAt,value
2019-05-25T00:01:26.034Z,76.50
2019-05-25T00:03:29.277Z,77.11
2019-05-25T00:05:31.699Z,76.62
2019-05-25T00:07:33.397Z,76.93
2019-05-25T00:09:35.508Z,76.48
2019-05-25T00:11:37.780Z,76.09
2019-05-25T00:13:39.924Z,75.58
2019-05-25T00:15:42.207Z,75.64
2019-05-25T00:17:44.387Z,75.40
2019-05-25T00:19:47.558Z,74.82
2019-05-25T00:21:49.949Z,75.09
2019-05-25T00:23:52.208Z,74.36
2019-05-25T00:25:54.369Z,74.89
2019-05-25T00:27:57.193Z,74.24
2019-05-25T00:30:00.501Z,74.04
2019-05-25T00:32:02.966Z,73.43
2019-05-25T00:34:05.601Z,73.55
2019-05-25T00:36:07.746Z,73.61
2019-05-25T00:38:09.808Z,73.65
2019-05-25T00:40:12.131Z,73.91
2019-05-25T00:42:14.705Z,74.11
2019-05-25T00:44:16.421Z,74.25
2019-05-25T00:46:18.438Z,73.77
2019-05-25T00:48:20.877Z,73.98
2019-05-25T00:50:22.965Z,73.80
2019-05-25T00:52:26.025Z,74.14
2019-05-25T00:54:29.608Z,74.21
2019-05-25T00:56:31.706Z,74.11
2019-05-25T00:58:33.884Z,74.29
2019-05-25T01:00:36.303Z,74.26
2019-05-25T01:02:39.946Z,74.19
2019-05-25T01:04:44.608Z,74.79
2019-05-25T01:06:47.418Z,74.44
2019-05-25T01:08:49.497Z,74.69
2019-05-25T01:10:51.917Z,74.45
2019-05-25T01:12:54.207Z,74.39
2019-05-25T01:14:56.291Z,74.30
2019-05-25T01:16:58.349Z,74.22
2019-05-25T01:19:00.944Z,74.17
2019-05-25T01:21:03.074Z,74.25
2019-05-25T01:23:05.236Z,74.36
2019-05-25T01:25:08.319Z,74.40
2019-05-25T01:27:12.154Z,74.23
2019-05-25T01:29:14.224Z,74.28
2019-05-25T01:31:18.416Z,74.61
2019-05-25T01:33:20.853Z,74.72
2019-05-25T01:35:23.045Z,74.86
2019-05-25T01:37:25.398Z,74.88
2019-05-25T01:39:27.497Z,74.74
2019-05-25T01:41:30.110Z,74.56
2019-05-25T01:43:32.394Z,74.83
2019-05-25T01:45:34.660Z,75.05
2019-05-25T01:47:36.766Z,74.60
2019-05-25T01:49:39.205Z,74.52
2019-05-25T01:51:41.004Z,74.73
2019-05-25T01:53:43.094Z,74.68
2019-05-25T01:55:45.699Z,75.21
2019-05-25T01:57:47.563Z,74.94
2019-05-25T01:59:49.962Z,75.06
2019-05-25T02:01:52.298Z,74.87
2019-05-25T02:03:54.601Z,75.23
2019-05-25T02:05:56.732Z,75.36
2019-05-25T02:07:59.195Z,75.59
2019-05-25T02:10:00.955Z,75.40
2019-05-25T02:12:03.052Z,75.39
2019-05-25T02:14:05.592Z,75.77
2019-05-25T02:16:08.085Z,76.13
2019-05-25T02:18:09.796Z,76.06
2019-05-25T02:20:12.387Z,76.09
2019-05-25T02:22:14.838Z,76.36
2019-05-25T02:24:16.545Z,76.40
2019-05-25T02:26:18.780Z,76.92
2019-05-25T02:28:20.873Z,77.11
2019-05-25T02:30:25.684Z,77.17
2019-05-25T02:32:28.254Z,76.97
2019-05-25T02:34:30.407Z,77.38
2019-05-25T02:36:32.535Z,77.28
2019-05-25T02:38:35.042Z,77.24
2019-05-25T02:40:37.264Z,76.95
2019-05-25T02:42:39.259Z,76.73
2019-05-25T02:44:41.528Z,76.99
2019-05-25T02:46:43.532Z,76.83
2019-05-25T02:48:45.532Z,76.82
2019-05-25T02:50:48.023Z,77.11
2019-05-25T02:52:49.718Z,77.28
2019-05-25T02:54:51.687Z,77.24
2019-05-25T02:56:53.897Z,76.95
2019-05-25T02:58:55.912Z,76.90
2019-05-25T03:00:58.163Z,77.25
2019-05-25T03:03:01.596Z,77.71
2019-05-25T03:05:05.755Z,77.68
2019-05-25T03:07:08.286Z,77.34
2019-05-25T03:09:10.044Z,76.96
2019-05-25T03:11:12.278Z,77.01
2019-05-25T03:13:15.029Z,77.28
2019-05-25T03:15:17.576Z,76.89
2019-05-25T03:17:19.755Z,77.72
2019-05-25T03:19:21.780Z,78.08
2019-05-25T03:21:24.072Z,78.04
2019-05-25T03:23:26.117Z,77.77
2019-05-25T03:25:28.125Z,77.78
2019-05-25T03:27:30.570Z,77.44
2019-05-25T03:29:32.579Z,77.83
2019-05-25T03:31:34.593Z,77.62
2019-05-25T03:33:36.880Z,77.29
2019-05-25T03:35:39.075Z,77.35
2019-05-25T03:37:41.123Z,77.47
2019-05-25T03:39:43.453Z,77.53
2019-05-25T03:41:45.531Z,77.40
2019-05-25T03:43:47.536Z,77.62
2019-05-25T03:45:49.780Z,77.92
2019-05-25T03:47:51.845Z,78.04
2019-05-25T03:49:53.867Z,78.02
2019-05-25T03:51:56.433Z,78.08
2019-05-25T03:53:58.550Z,77.81
2019-05-25T03:56:05.693Z,77.82
2019-05-25T03:58:06.001Z,78.48
2019-05-25T04:00:08.527Z,78.27
2019-05-25T04:02:10.819Z,78.13
2019-05-25T04:04:13.128Z,77.74
2019-05-25T04:06:15.147Z,77.73
2019-05-25T04:08:17.206Z,77.88
2019-05-25T04:10:19.702Z,78.12
2019-05-25T04:12:21.536Z,77.60
2019-05-25T04:14:24.435Z,77.81
2019-05-25T04:16:26.835Z,76.82
2019-05-25T04:18:29.723Z,77.01
2019-05-25T04:20:31.733Z,77.12
2019-05-25T04:22:34.124Z,76.56
2019-05-25T04:24:36.179Z,77.08
2019-05-25T04:26:38.211Z,77.18
2019-05-25T04:28:40.352Z,76.62
2019-05-25T04:30:43.526Z,75.88
2019-05-25T04:32:45.543Z,76.44
2019-05-25T04:34:47.729Z,75.95
2019-05-25T04:36:49.746Z,76.12
2019-05-25T04:38:51.775Z,76.17
2019-05-25T04:40:54.017Z,76.13
2019-05-25T04:42:56.275Z,75.82
2019-05-25T04:44:58.430Z,75.64
2019-05-25T04:47:00.644Z,75.58
2019-05-25T04:49:02.686Z,74.90
2019-05-25T04:51:04.710Z,75.00
2019-05-25T04:53:07.022Z,75.34
2019-05-25T04:55:08.869Z,74.67
2019-05-25T04:57:10.997Z,74.33
2019-05-25T04:59:13.350Z,74.10
2019-05-25T05:01:16.196Z,74.49
2019-05-25T05:03:19.680Z,74.20
2019-05-25T05:05:22.033Z,74.03
2019-05-25T05:07:24.494Z,73.64
2019-05-25T05:09:26.345Z,74.44
2019-05-25T05:11:28.744Z,74.19
2019-05-25T05:13:30.670Z,73.70
2019-05-25T05:15:33.075Z,73.64
2019-05-25T05:17:35.355Z,73.46
2019-05-25T05:19:37.367Z,73.24
2019-05-25T05:21:39.406Z,73.54
2019-05-25T05:23:41.725Z,73.15
2019-05-25T05:25:43.769Z,72.88
2019-05-25T05:27:45.834Z,73.91
2019-05-25T05:29:48.218Z,73.75
2019-05-25T05:31:50.211Z,73.76
2019-05-25T05:33:52.445Z,73.75
2019-05-25T05:35:57.581Z,73.24
2019-05-25T05:38:05.140Z,73.07
2019-05-25T05:40:08.683Z,73.18
2019-05-25T05:42:13.092Z,73.06
2019-05-25T05:44:18.280Z,71.60
2019-05-25T05:46:21.121Z,71.43
2019-05-25T05:48:25.741Z,71.58
2019-05-25T05:50:30.663Z,70.82
2019-05-25T05:52:38.059Z,70.42
2019-05-25T05:54:44.071Z,70.54
2019-05-25T05:56:46.095Z,70.01
2019-05-25T05:58:49.997Z,68.71
2019-05-25T06:00:52.328Z,68.93
2019-05-25T06:02:54.188Z,69.47
2019-05-25T06:04:57.250Z,68.99
2019-05-25T06:06:59.538Z,68.87
2019-05-25T06:09:01.231Z,68.91
2019-05-25T06:11:06.356Z,69.43
2019-05-25T06:13:09.934Z,68.91
2019-05-25T06:15:11.760Z,68.75
2019-05-25T06:17:13.869Z,69.37
2019-05-25T06:19:16.740Z,69.48
2019-05-25T06:21:18.747Z,69.85
2019-05-25T06:23:21.244Z,69.53
2019-05-25T06:25:23.948Z,70.06
2019-05-25T06:27:27.722Z,70.55
2019-05-25T06:29:29.942Z,70.86
2019-05-25T06:31:32.473Z,70.75
2019-05-25T06:33:34.671Z,70.15
2019-05-25T06:35:36.706Z,70.90
2019-05-25T06:37:39.392Z,70.24
2019-05-25T06:39:41.405Z,70.20
2019-05-25T06:41:43.443Z,70.74
2019-05-25T06:43:45.778Z,70.80
2019-05-25T06:45:47.787Z,71.21
2019-05-25T06:47:51.612Z,70.70
2019-05-25T06:49:54.121Z,70.52
2019-05-25T06:51:55.769Z,70.08
2019-05-25T06:53:57.900Z,70.24
2019-05-25T06:56:00.079Z,69.00
2019-05-25T06:58:03.011Z,69.64
2019-05-25T07:00:06.608Z,69.90
2019-05-25T07:02:08.904Z,68.64
2019-05-25T07:04:10.915Z,70.29
2019-05-25T07:06:12.944Z,68.51
2019-05-25T07:08:15.057Z,67.93
2019-05-25T07:10:17.139Z,69.29
2019-05-25T07:12:19.781Z,71.51
2019-05-25T07:14:22.293Z,70.35
2019-05-25T07:16:25.136Z,68.25
2019-05-25T07:18:27.353Z,69.92
2019-05-25T07:20:29.799Z,71.33
2019-05-25T07:22:31.990Z,71.86
2019-05-25T07:24:34.094Z,70.28
2019-05-25T07:26:39.037Z,72.13
2019-05-25T07:28:41.136Z,71.36
2019-05-25T07:30:46.498Z,70.95
2019-05-25T07:32:47.586Z,70.63
2019-05-25T07:34:49.624Z,70.06
2019-05-25T07:36:51.731Z,73.11
2019-05-25T07:38:53.981Z,73.23
2019-05-25T07:40:55.994Z,72.47
2019-05-25T07:42:58.065Z,73.19
2019-05-25T07:45:00.278Z,72.70
2019-05-25T07:47:02.280Z,73.43
2019-05-25T07:49:04.544Z,69.19
2019-05-25T07:51:06.821Z,70.21
2019-05-25T07:53:09.498Z,72.12
2019-05-25T07:55:11.847Z,72.99
2019-05-25T07:57:14.084Z,74.01
2019-05-25T07:59:16.089Z,75.51
2019-05-25T08:01:18.220Z,74.78
2019-05-25T08:03:20.520Z,74.05
2019-05-25T08:05:22.574Z,74.00
2019-05-25T08:07:24.950Z,74.23
2019-05-25T08:09:27.280Z,74.27
2019-05-25T08:11:29.498Z,73.91
2019-05-25T08:13:31.606Z,74.01
2019-05-25T08:15:34.281Z,72.95
2019-05-25T08:17:36.742Z,72.84
2019-05-25T08:19:39.623Z,71.94
2019-05-25T08:21:42.135Z,70.90
2019-05-25T08:23:44.620Z,73.29
2019-05-25T08:25:46.766Z,72.80
2019-05-25T08:27:50.445Z,74.20
2019-05-25T08:29:52.614Z,71.79
2019-05-25T08:31:54.849Z,72.63
2019-05-25T08:33:57.144Z,72.06
2019-05-25T08:35:59.501Z,73.43
2019-05-25T08:38:01.684Z,71.15
2019-05-25T08:40:04.866Z,71.76
2019-05-25T08:42:07.216Z,70.09
2019-05-25T08:44:09.922Z,71.27
2019-05-25T08:46:12.111Z,70.75
2019-05-25T08:48:14.291Z,68.61
2019-05-25T08:50:17.307Z,68.81
2019-05-25T08:52:19.587Z,68.34
2019-05-25T08:54:21.709Z,69.55
2019-05-25T08:56:24.051Z,71.84
2019-05-25T08:58:27.604Z,72.15
2019-05-25T09:00:29.369Z,71.90
2019-05-25T09:02:33.608Z,69.12
2019-05-25T09:04:35.761Z,73.04
2019-05-25T09:06:37.839Z,71.91
2019-05-25T09:08:40.191Z,73.56
2019-05-25T09:10:42.226Z,76.27
2019-05-25T09:12:44.259Z,77.45
2019-05-25T09:14:46.489Z,76.56
2019-05-25T09:16:48.589Z,77.21
2019-05-25T09:18:50.701Z,78.12
2019-05-25T09:20:54.415Z,78.36
2019-05-25T09:22:56.450Z,77.72
2019-05-25T09:24:58.487Z,78.23
2019-05-25T09:27:00.800Z,77.11
2019-05-25T09:29:04.876Z,76.59
2019-05-25T09:31:07.217Z,76.88
2019-05-25T09:33:09.443Z,78.78
2019-05-25T09:35:11.537Z,75.29
2019-05-25T09:37:13.682Z,79.01
2019-05-25T09:39:15.935Z,78.68
2019-05-25T09:41:17.956Z,75.61
2019-05-25T09:43:19.973Z,73.78
2019-05-25T09:45:22.326Z,74.24
2019-05-25T09:47:25.623Z,74.11
2019-05-25T09:49:27.633Z,74.42
2019-05-25T09:51:30.051Z,74.55
2019-05-25T09:53:34.851Z,72.84
2019-05-25T09:55:37.057Z,70.49
2019-05-25T09:57:41.728Z,72.44
2019-05-25T09:59:43.553Z,69.56
2019-05-25T10:01:46.662Z,70.82
2019-05-25T10:03:49.387Z,67.84
2019-05-25T10:05:52.064Z,68.54
2019-05-25T10:07:54.242Z,70.23
2019-05-25T10:09:56.518Z,68.93
2019-05-25T10:12:02.103Z,68.93
2019-05-25T10:14:04.304Z,68.42
2019-05-25T10:16:06.892Z,69.69
2019-05-25T10:18:10.561Z,70.69
2019-05-25T10:20:13.327Z,67.30
2019-05-25T10:22:15.728Z,66.98
2019-05-25T10:24:17.959Z,67.73
2019-05-25T10:26:22.912Z,66.68
2019-05-25T10:28:25.105Z,67.86
2019-05-25T10:30:27.187Z,65.97
2019-05-25T10:32:29.268Z,69.43
2019-05-25T10:34:31.573Z,65.90
2019-05-25T10:36:34.381Z,67.13
2019-05-25T10:38:36.636Z,68.22
2019-05-25T10:40:39.016Z,66.18
2019-05-25T10:42:40.853Z,67.10
2019-05-25T10:44:43.118Z,66.07
2019-05-25T10:46:45.591Z,63.98
2019-05-25T10:48:47.266Z,65.07
2019-05-25T10:50:49.394Z,65.53
2019-05-25T10:52:52.265Z,65.81
2019-05-25T10:54:56.490Z,63.77
2019-05-25T10:56:59.737Z,64.60
2019-05-25T10:59:03.184Z,64.65
2019-05-25T11:01:05.228Z,64.70
2019-05-25T11:03:08.009Z,66.26
2019-05-25T11:05:12.359Z,66.00
2019-05-25T11:07:14.452Z,65.50
2019-05-25T11:09:17.417Z,66.26
2019-05-25T11:11:20.148Z,65.35
2019-05-25T11:13:22.306Z,65.19
2019-05-25T11:15:24.499Z,65.15
2019-05-25T11:17:26.783Z,65.45
2019-05-25T11:19:29.557Z,65.91
2019-05-25T11:21:33.777Z,65.02
2019-05-25T11:23:36.252Z,64.78
2019-05-25T11:25:37.901Z,65.61
2019-05-25T11:27:40.172Z,66.43
2019-05-25T11:29:42.520Z,65.79
2019-05-25T11:31:54.479Z,65.14
2019-05-25T11:33:51.624Z,65.05
2019-05-25T11:35:54.385Z,64.55
2019-05-25T11:37:58.041Z,64.09
2019-05-25T11:40:00.200Z,65.82
2019-05-25T11:42:02.611Z,64.62
2019-05-25T11:44:04.668Z,64.60
2019-05-25T11:46:07.020Z,65.55
2019-05-25T11:48:09.378Z,64.70
2019-05-25T11:50:12.359Z,64.59
2019-05-25T11:52:14.686Z,63.31
2019-05-25T11:54:17.003Z,64.58
2019-05-25T11:56:19.122Z,65.16
2019-05-25T11:58:21.925Z,64.72
2019-05-25T12:00:25.892Z,63.78
2019-05-25T12:02:28.563Z,63.58
2019-05-25T12:04:30.661Z,62.08
2019-05-25T12:06:33.147Z,64.56
2019-05-25T12:08:35.015Z,62.50
2019-05-25T12:10:37.121Z,61.20
2019-05-25T12:12:39.429Z,62.52
2019-05-25T12:14:41.518Z,62.15
2019-05-25T12:16:44.877Z,62.26
2019-05-25T12:18:47.362Z,62.67
2019-05-25T12:20:49.116Z,62.32
2019-05-25T12:22:51.284Z,61.97
2019-05-25T12:24:53.756Z,61.62
2019-05-25T12:26:55.460Z,61.82
2019-05-25T12:28:57.646Z,63.31
2019-05-25T12:30:59.934Z,61.38
2019-05-25T12:33:01.999Z,62.84
2019-05-25T12:35:05.102Z,62.95
2019-05-25T12:37:07.366Z,63.38
2019-05-25T12:39:09.501Z,62.06
2019-05-25T12:41:12.694Z,62.08
2019-05-25T12:43:15.986Z,62.06
2019-05-25T12:45:18.213Z,62.57
2019-05-25T12:47:20.237Z,61.59
2019-05-25T12:49:22.486Z,63.44
2019-05-25T12:51:24.590Z,61.33
2019-05-25T12:53:26.654Z,63.01
2019-05-25T12:55:29.070Z,61.93
2019-05-25T12:57:31.305Z,63.62
2019-05-25T12:59:33.606Z,61.11
2019-05-25T13:01:36.327Z,61.83
2019-05-25T13:03:38.430Z,61.75
2019-05-25T13:05:40.502Z,61.45
2019-05-25T13:07:42.963Z,60.72
2019-05-25T13:09:44.935Z,60.48
2019-05-25T13:11:47.085Z,59.58
2019-05-25T13:13:49.577Z,60.94
2019-05-25T13:15:51.315Z,60.46
2019-05-25T13:17:53.283Z,60.33
2019-05-25T13:19:55.566Z,59.41
2019-05-25T13:21:57.640Z,59.43
2019-05-25T13:24:00.124Z,59.29
2019-05-25T13:26:02.973Z,58.96
2019-05-25T13:28:06.229Z,59.12
2019-05-25T13:30:09.593Z,59.21
2019-05-25T13:32:11.693Z,59.07
2019-05-25T13:34:13.895Z,59.85
2019-05-25T13:36:16.011Z,60.06
2019-05-25T13:38:18.238Z,59.82
2019-05-25T13:40:20.284Z,59.50
2019-05-25T13:42:22.454Z,60.27
2019-05-25T13:44:24.638Z,60.40
2019-05-25T13:46:26.825Z,60.66
2019-05-25T13:48:28.926Z,61.40
2019-05-25T13:50:31.220Z,61.23
2019-05-25T13:52:33.512Z,60.55
2019-05-25T13:54:35.990Z,60.54
2019-05-25T13:56:38.342Z,59.82
2019-05-25T13:58:40.465Z,59.99
2019-05-25T14:00:42.596Z,59.94
2019-05-25T14:02:45.223Z,59.97
2019-05-25T14:04:46.821Z,59.84
2019-05-25T14:06:48.875Z,59.29
2019-05-25T14:08:52.232Z,59.31
2019-05-25T14:10:54.216Z,59.15
2019-05-25T14:12:56.505Z,58.81
2019-05-25T14:14:58.830Z,59.08
2019-05-25T14:17:01.035Z,58.79
2019-05-25T14:19:03.264Z,59.63
2019-05-25T14:21:05.717Z,58.14
2019-05-25T14:23:07.395Z,58.49
2019-05-25T14:25:10.771Z,58.75
2019-05-25T14:27:12.949Z,57.48
2019-05-25T14:29:17.982Z,57.70
2019-05-25T14:31:20.132Z,57.08
2019-05-25T14:33:22.593Z,56.10
2019-05-25T14:35:24.636Z,55.53
2019-05-25T14:37:26.802Z,56.25
2019-05-25T14:39:29.504Z,55.48
2019-05-25T14:41:31.979Z,55.97
2019-05-25T14:43:33.961Z,55.87
2019-05-25T14:45:36.622Z,55.65
2019-05-25T14:47:38.804Z,55.40
2019-05-25T14:49:41.023Z,56.37
2019-05-25T14:51:43.421Z,57.60
2019-05-25T14:53:45.512Z,57.02
2019-05-25T14:55:47.640Z,56.14
2019-05-25T14:57:50.013Z,54.90
2019-05-25T14:59:52.101Z,55.25
2019-05-25T15:02:02.586Z,55.38
2019-05-25T15:03:58.588Z,56.03
2019-05-25T15:06:00.740Z,56.03
2019-05-25T15:08:02.825Z,56.73
2019-05-25T15:10:05.662Z,56.01
2019-05-25T15:12:07.934Z,55.30
2019-05-25T15:14:11.183Z,56.34
2019-05-25T15:16:13.371Z,56.92
2019-05-25T15:18:15.584Z,57.32
2019-05-25T15:20:18.962Z,57.79
2019-05-25T15:22:21.419Z,57.34
2019-05-25T15:24:23.660Z,56.05
2019-05-25T15:26:25.714Z,56.71
2019-05-25T15:28:28.118Z,56.06
2019-05-25T15:30:30.501Z,57.86
2019-05-25T15:32:33.199Z,57.68
2019-05-25T15:34:36.025Z,58.54
2019-05-25T15:36:38.152Z,57.95
2019-05-25T15:38:40.321Z,57.53
2019-05-25T15:40:42.521Z,57.26
2019-05-25T15:42:44.605Z,58.44
2019-05-25T15:44:46.789Z,58.40
2019-05-25T15:46:49.930Z,58.30
2019-05-25T15:48:52.160Z,59.04
2019-05-25T15:50:54.342Z,58.30
2019-05-25T15:52:56.984Z,58.36
2019-05-25T15:54:59.103Z,58.50
2019-05-25T15:57:01.180Z,58.38
2019-05-25T15:59:04.243Z,59.22
2019-05-25T16:01:07.565Z,59.30
2019-05-25T16:03:09.846Z,58.20
2019-05-25T16:05:13.025Z,59.57
2019-05-25T16:07:15.605Z,59.41
2019-05-25T16:09:17.465Z,58.62
2019-05-25T16:11:19.881Z,59.48
2019-05-25T16:13:22.209Z,59.30
2019-05-25T16:15:28.387Z,60.28
2019-05-25T16:17:30.856Z,60.80
2019-05-25T16:19:32.382Z,60.19
2019-05-25T16:21:34.779Z,59.92
2019-05-25T16:23:38.231Z,59.17
2019-05-25T16:25:40.470Z,58.29
2019-05-25T16:27:43.570Z,59.24
2019-05-25T16:29:45.937Z,59.07
2019-05-25T16:31:49.422Z,60.18
2019-05-25T16:33:52.428Z,60.88
2019-05-25T16:35:57.889Z,60.78
2019-05-25T16:37:59.180Z,61.08
2019-05-25T16:40:02.149Z,61.15
2019-05-25T16:42:06.205Z,61.74
2019-05-25T16:44:08.340Z,62.75
2019-05-25T16:46:10.380Z,63.15
2019-05-25T16:48:12.807Z,63.54
2019-05-25T16:50:15.322Z,63.26
2019-05-25T16:52:17.859Z,63.03
2019-05-25T16:54:19.913Z,63.09
2019-05-25T16:56:22.248Z,63.00
2019-05-25T16:58:24.653Z,63.00
2019-05-25T17:00:27.584Z,63.16
2019-05-25T17:02:29.766Z,62.44
2019-05-25T17:04:32.084Z,62.92
2019-05-25T17:06:34.198Z,63.75
2019-05-25T17:08:36.214Z,63.59
2019-05-25T17:10:38.667Z,63.91
2019-05-25T17:12:40.448Z,63.38
2019-05-25T17:14:42.826Z,62.98
2019-05-25T17:16:45.047Z,63.38
2019-05-25T17:18:47.087Z,62.82
2019-05-25T17:20:49.940Z,63.58
2019-05-25T17:22:52.353Z,63.65
2019-05-25T17:24:54.003Z,63.78
2019-05-25T17:26:56.061Z,64.34
2019-05-25T17:28:58.434Z,64.00
2019-05-25T17:31:00.572Z,63.63
2019-05-25T17:33:03.876Z,63.35
2019-05-25T17:35:06.571Z,63.22
2019-05-25T17:37:08.771Z,63.55
2019-05-25T17:39:11.015Z,62.98
2019-05-25T17:41:13.682Z,63.56
2019-05-25T17:43:15.566Z,63.14
2019-05-25T17:45:17.675Z,63.09
2019-05-25T17:47:20.466Z,62.47
2019-05-25T17:49:22.682Z,62.09
2019-05-25T17:51:25.200Z,61.91
2019-05-25T17:53:27.443Z,62.51
2019-05-25T17:55:29.839Z,62.39
2019-05-25T17:57:32.056Z,61.92
2019-05-25T17:59:34.482Z,62.78
2019-05-25T18:01:36.330Z,62.68
2019-05-25T18:03:38.463Z,62.46
2019-05-25T18:05:40.903Z,61.54
2019-05-25T18:07:44.057Z,61.28
2019-05-25T18:09:46.366Z,61.22
2019-05-25T18:11:48.934Z,61.37
2019-05-25T18:13:51.465Z,62.39
2019-05-25T18:15:53.184Z,61.65
2019-05-25T18:17:55.798Z,60.63
2019-05-25T18:19:57.622Z,60.82
2019-05-25T18:21:59.990Z,61.31
2019-05-25T18:24:10.365Z,60.08
2019-05-25T18:26:12.607Z,59.91
2019-05-25T18:28:15.346Z,60.02
2019-05-25T18:30:18.309Z,59.71
2019-05-25T18:32:20.431Z,59.24
2019-05-25T18:34:22.737Z,59.16
2019-05-25T18:36:25.249Z,60.20
2019-05-25T18:38:27.001Z,60.46
2019-05-25T18:40:29.147Z,60.67
2019-05-25T18:42:31.303Z,61.37
2019-05-25T18:44:33.645Z,61.47
2019-05-25T18:46:36.096Z,61.89
2019-05-25T18:48:38.076Z,63.66
2019-05-25T18:50:40.998Z,64.07
2019-05-25T18:52:43.250Z,64.55
2019-05-25T18:54:45.532Z,64.99
2019-05-25T18:56:47.593Z,65.69
2019-05-25T18:58:49.815Z,66.24
2019-05-25T19:00:52.406Z,66.48
2019-05-25T19:02:54.286Z,67.05
2019-05-25T19:04:59.740Z,67.97
2019-05-25T19:07:00.471Z,68.26
2019-05-25T19:09:04.536Z,68.72
2019-05-25T19:11:06.684Z,68.70
2019-05-25T19:13:09.065Z,69.88
2019-05-25T19:15:11.534Z,69.80
2019-05-25T19:17:13.474Z,69.88
2019-05-25T19:19:16.004Z,70.39
2019-05-25T19:21:17.633Z,70.31
2019-05-25T19:23:20.084Z,70.36
2019-05-25T19:25:22.715Z,70.55
2019-05-25T19:27:24.879Z,71.12
2019-05-25T19:29:27.096Z,71.31
2019-05-25T19:31:29.678Z,71.52
2019-05-25T19:33:31.878Z,71.51
2019-05-25T19:35:34.112Z,71.84
2019-05-25T19:37:36.608Z,72.29
2019-05-25T19:39:38.768Z,72.88
2019-05-25T19:41:40.903Z,73.18
2019-05-25T19:43:43.507Z,73.43
2019-05-25T19:45:47.344Z,73.47
2019-05-25T19:47:49.854Z,73.62
2019-05-25T19:49:52.256Z,73.54
2019-05-25T19:51:54.343Z,73.90
2019-05-25T19:53:56.605Z,74.34
2019-05-25T19:56:00.278Z,74.36
2019-05-25T19:58:02.317Z,73.98
2019-05-25T20:00:05.545Z,73.78
2019-05-25T20:02:09.148Z,73.71
2019-05-25T20:04:13.954Z,73.22
2019-05-25T20:06:16.155Z,72.90
2019-05-25T20:08:18.503Z,72.41
2019-05-25T20:10:21.253Z,72.46
2019-05-25T20:12:23.365Z,72.14
2019-05-25T20:14:27.340Z,72.22
2019-05-25T20:16:30.604Z,72.46
2019-05-25T20:18:32.985Z,72.06
2019-05-25T20:20:35.263Z,71.58
2019-05-25T20:22:37.128Z,71.80
2019-05-25T20:24:39.777Z,71.52
2019-05-25T20:26:42.089Z,71.82
2019-05-25T20:28:44.146Z,72.19
2019-05-25T20:30:46.380Z,72.49
2019-05-25T20:32:49.078Z,72.57
2019-05-25T20:34:52.120Z,72.69
2019-05-25T20:36:54.150Z,72.94
2019-05-25T20:38:56.608Z,72.96
2019-05-25T20:40:59.907Z,72.96
2019-05-25T20:43:02.154Z,73.43
2019-05-25T20:45:05.275Z,73.91
2019-05-25T20:47:07.626Z,73.62
2019-05-25T20:49:11.233Z,73.80
2019-05-25T20:51:13.727Z,74.23
2019-05-25T20:53:17.157Z,74.10
2019-05-25T20:55:19.268Z,74.07
2019-05-25T20:57:22.185Z,74.02
2019-05-25T20:59:24.363Z,74.00
2019-05-25T21:01:26.381Z,74.55
2019-05-25T21:03:29.041Z,74.68
2019-05-25T21:05:31.132Z,75.12
2019-05-25T21:07:34.352Z,75.66
2019-05-25T21:09:37.064Z,75.78
2019-05-25T21:11:38.849Z,76.14
2019-05-25T21:13:40.972Z,76.12
2019-05-25T21:16:04.612Z,76.47
2019-05-25T21:18:06.925Z,77.07
2019-05-25T21:20:09.201Z,77.41
2019-05-25T21:22:12.180Z,77.38
2019-05-25T21:24:14.727Z,77.89
2019-05-25T21:26:16.929Z,78.11
2019-05-25T21:28:19.255Z,78.27
2019-05-25T21:30:21.112Z,78.61
2019-05-25T21:32:25.982Z,79.00
2019-05-25T21:34:28.331Z,79.11
2019-05-25T21:36:30.354Z,79.16
2019-05-25T21:38:32.667Z,79.01
2019-05-25T21:40:35.428Z,79.36
2019-05-25T21:42:37.557Z,79.89
2019-05-25T21:44:39.875Z,79.94
2019-05-25T21:46:42.032Z,79.80
2019-05-25T21:48:44.214Z,80.16
2019-05-25T21:50:47.217Z,80.10
2019-05-25T21:52:49.528Z,80.40
2019-05-25T21:54:51.602Z,80.28
2019-05-25T21:56:53.775Z,80.37
2019-05-25T21:58:56.529Z,80.19
2019-05-25T22:00:58.756Z,80.33
2019-05-25T22:03:03.315Z,80.35
2019-05-25T22:05:07.456Z,80.50
2019-05-25T22:07:09.686Z,80.21
2019-05-25T22:09:12.143Z,80.86
2019-05-25T22:11:14.093Z,81.10
2019-05-25T22:13:27.985Z,80.91
2019-05-25T22:15:20.227Z,81.06
2019-05-25T22:17:22.924Z,80.87
2019-05-25T22:19:25.045Z,81.22
2019-05-25T22:21:27.362Z,81.31
2019-05-25T22:23:29.434Z,81.43
2019-05-25T22:25:31.639Z,81.48
2019-05-25T22:27:33.736Z,81.58
2019-05-25T22:29:36.142Z,81.88
2019-05-25T22:33:00.622Z,81.89
2019-05-25T22:35:03.234Z,81.78
2019-05-25T22:37:06.077Z,81.97
2019-05-25T22:39:08.193Z,81.90
2019-05-25T22:41:10.653Z,82.14
2019-05-25T22:43:12.435Z,82.25
2019-05-25T22:45:14.783Z,82.37
2019-05-25T22:47:16.940Z,82.28
2019-05-25T22:49:19.297Z,82.24
2019-05-25T22:51:21.360Z,81.57
2019-05-25T22:53:23.756Z,82.60
2019-05-25T22:55:25.473Z,82.60
2019-05-25T22:57:27.708Z,83.03
2019-05-25T22:59:30.133Z,82.94
2019-05-25T23:01:32.542Z,82.74
2019-05-25T23:03:34.698Z,83.04
2019-05-25T23:05:36.943Z,83.12
2019-05-25T23:07:39.155Z,83.21
2019-05-25T23:09:41.192Z,83.00
2019-05-25T23:11:43.323Z,83.07
2019-05-25T23:13:45.418Z,83.02
2019-05-25T23:15:47.809Z,82.97
2019-05-25T23:17:50.217Z,83.04
2019-05-25T23:19:51.808Z,82.97
2019-05-25T23:21:53.973Z,83.06
2019-05-25T23:23:57.528Z,83.50
2019-05-25T23:25:59.160Z,83.48
2019-05-25T23:28:01.296Z,83.26
2019-05-25T23:30:05.500Z,83.58
2019-05-25T23:32:07.719Z,83.72
2019-05-25T23:34:09.844Z,83.48
2019-05-25T23:36:12.370Z,83.37
2019-05-25T23:38:14.607Z,83.52
2019-05-25T23:40:17.319Z,83.67
2019-05-25T23:42:20.000Z,83.63
2019-05-25T23:44:22.242Z,83.75
2019-05-25T23:46:24.687Z,83.79
2019-05-25T23:48:30.072Z,83.66
2019-05-25T23:50:32.244Z,83.85
2019-05-25T23:52:35.486Z,83.81
2019-05-25T23:54:37.996Z,83.75
2019-05-25T23:56:41.539Z,83.98
2019-05-25T23:58:45.471Z,84.15
